sensor_id;sensor_type;location;lat;lon;timestamp;temperature;humidity
69204;DHT22;56317;27.658;85.326;2022-09-24T00:01:25;20.20;99.90
69204;DHT22;56317;27.658;85.326;2022-09-24T00:03:55;20.20;99.90
69204;DHT22;56317;27.658;85.326;2022-09-24T00:06:23;20.30;99.90
69204;DHT22;56317;27.658;85.326;2022-09-24T00:08:52;20.20;99.90
69204;DHT22;56317;27.658;85.326;2022-09-24T00:11:24;20.20;99.90
69204;DHT22;56317;27.658;85.326;2022-09-24T00:13:52;20.30;99.90
69204;DHT22;56317;27.658;85.326;2022-09-24T00:16:21;20.30;99.90
69204;DHT22;56317;27.658;85.326;2022-09-24T00:18:51;20.30;99.90
69204;DHT22;56317;27.658;85.326;2022-09-24T00:21:24;20.40;99.90
69204;DHT22;56317;27.658;85.326;2022-09-24T00:23:55;20.30;99.90
69204;DHT22;56317;27.658;85.326;2022-09-24T00:26:23;20.40;99.90
69204;DHT22;56317;27.658;85.326;2022-09-24T00:29:10;20.40;99.90
69204;DHT22;56317;27.658;85.326;2022-09-24T00:31:38;20.40;99.90
69204;DHT22;56317;27.658;85.326;2022-09-24T00:34:05;20.40;99.90
69204;DHT22;56317;27.658;85.326;2022-09-24T00:36:32;20.40;99.90
69204;DHT22;56317;27.658;85.326;2022-09-24T00:39:00;20.50;99.90
69204;DHT22;56317;27.658;85.326;2022-09-24T00:41:30;20.60;99.90
69204;DHT22;56317;27.658;85.326;2022-09-24T00:43:58;20.60;99.90
69204;DHT22;56317;27.658;85.326;2022-09-24T00:49:18;20.70;99.90
69204;DHT22;56317;27.658;85.326;2022-09-24T00:51:47;20.70;99.90
69204;DHT22;56317;27.658;85.326;2022-09-24T00:54:20;20.80;99.90
69204;DHT22;56317;27.658;85.326;2022-09-24T00:56:50;20.70;99.90
69204;DHT22;56317;27.658;85.326;2022-09-24T00:59:19;20.70;99.90
69204;DHT22;56317;27.658;85.326;2022-09-24T01:01:49;20.70;99.90
69204;DHT22;56317;27.658;85.326;2022-09-24T01:04:18;20.80;99.90
69204;DHT22;56317;27.658;85.326;2022-09-24T01:06:49;20.80;99.90
69204;DHT22;56317;27.658;85.326;2022-09-24T01:09:18;20.80;99.90
69204;DHT22;56317;27.658;85.326;2022-09-24T01:12:03;20.90;99.90
69204;DHT22;56317;27.658;85.326;2022-09-24T01:33:53;21.60;99.90
69204;DHT22;56317;27.658;85.326;2022-09-24T01:36:22;21.80;99.90
69204;DHT22;56317;27.658;85.326;2022-09-24T01:38:51;21.90;99.90
69204;DHT22;56317;27.658;85.326;2022-09-24T01:41:19;21.90;99.90
69204;DHT22;56317;27.658;85.326;2022-09-24T01:43:48;22.00;99.90
69204;DHT22;56317;27.658;85.326;2022-09-24T01:46:16;22.10;99.90
69204;DHT22;56317;27.658;85.326;2022-09-24T01:48:45;22.20;99.90
69204;DHT22;56317;27.658;85.326;2022-09-24T01:51:24;22.20;99.90
69204;DHT22;56317;27.658;85.326;2022-09-24T01:54:08;22.30;99.90
69204;DHT22;56317;27.658;85.326;2022-09-24T01:59:47;22.70;99.90
69204;DHT22;56317;27.658;85.326;2022-09-24T02:02:32;22.90;99.90
69204;DHT22;56317;27.658;85.326;2022-09-24T02:08:13;23.20;99.90
69204;DHT22;56317;27.658;85.326;2022-09-24T02:13:32;23.40;99.90
69204;DHT22;56317;27.658;85.326;2022-09-24T02:16:05;23.60;99.90
69204;DHT22;56317;27.658;85.326;2022-09-24T02:18:39;23.90;99.90
69204;DHT22;56317;27.658;85.326;2022-09-24T02:21:11;24.10;99.90
69204;DHT22;56317;27.658;85.326;2022-09-24T02:23:44;24.30;99.90
69204;DHT22;56317;27.658;85.326;2022-09-24T02:26:13;24.40;99.90
69204;DHT22;56317;27.658;85.326;2022-09-24T02:28:40;24.70;99.90
69204;DHT22;56317;27.658;85.326;2022-09-24T02:31:17;24.90;99.90
69204;DHT22;56317;27.658;85.326;2022-09-24T02:33:48;25.30;99.90
69204;DHT22;56317;27.658;85.326;2022-09-24T02:36:34;25.80;99.90
69204;DHT22;56317;27.658;85.326;2022-09-24T02:39:02;26.00;99.90
69204;DHT22;56317;27.658;85.326;2022-09-24T02:41:30;26.20;99.90
69204;DHT22;56317;27.658;85.326;2022-09-24T02:43:57;26.30;99.90
69204;DHT22;56317;27.658;85.326;2022-09-24T02:46:25;26.40;99.90
69204;DHT22;56317;27.658;85.326;2022-09-24T02:48:52;26.50;99.90
69204;DHT22;56317;27.658;85.326;2022-09-24T02:51:19;26.60;99.90
69204;DHT22;56317;27.658;85.326;2022-09-24T02:53:47;26.70;99.90
69204;DHT22;56317;27.658;85.326;2022-09-24T02:56:14;26.60;99.80
69204;DHT22;56317;27.658;85.326;2022-09-24T02:58:41;26.70;99.70
69204;DHT22;56317;27.658;85.326;2022-09-24T03:01:08;26.80;99.50
69204;DHT22;56317;27.658;85.326;2022-09-24T03:03:35;26.90;98.40
69204;DHT22;56317;27.658;85.326;2022-09-24T03:06:02;27.00;98.50
69204;DHT22;56317;27.658;85.326;2022-09-24T03:08:30;27.20;98.90
69204;DHT22;56317;27.658;85.326;2022-09-24T03:10:57;27.40;98.20
69204;DHT22;56317;27.658;85.326;2022-09-24T03:13:26;27.60;98.10
69204;DHT22;56317;27.658;85.326;2022-09-24T03:15:53;27.50;97.30
69204;DHT22;56317;27.658;85.326;2022-09-24T03:18:20;27.50;97.30
69204;DHT22;56317;27.658;85.326;2022-09-24T03:21:10;27.50;97.20
69204;DHT22;56317;27.658;85.326;2022-09-24T03:23:38;27.60;96.70
69204;DHT22;56317;27.658;85.326;2022-09-24T03:26:06;27.60;96.50
69204;DHT22;56317;27.658;85.326;2022-09-24T03:28:33;27.80;96.30
69204;DHT22;56317;27.658;85.326;2022-09-24T03:31:01;28.10;96.30
69204;DHT22;56317;27.658;85.326;2022-09-24T03:33:41;28.30;95.40
69204;DHT22;56317;27.658;85.326;2022-09-24T03:36:10;28.50;95.80
69204;DHT22;56317;27.658;85.326;2022-09-24T03:38:39;28.80;94.40
69204;DHT22;56317;27.658;85.326;2022-09-24T03:41:07;29.00;93.10
69204;DHT22;56317;27.658;85.326;2022-09-24T03:43:35;29.10;93.20
69204;DHT22;56317;27.658;85.326;2022-09-24T03:46:04;29.20;93.00
69204;DHT22;56317;27.658;85.326;2022-09-24T03:48:37;29.30;93.30
69204;DHT22;56317;27.658;85.326;2022-09-24T03:51:06;29.60;93.30
69204;DHT22;56317;27.658;85.326;2022-09-24T03:53:33;29.90;92.60
69204;DHT22;56317;27.658;85.326;2022-09-24T03:56:01;29.90;91.70
69204;DHT22;56317;27.658;85.326;2022-09-24T03:58:29;30.00;92.00
69204;DHT22;56317;27.658;85.326;2022-09-24T04:00:57;30.30;91.20
69204;DHT22;56317;27.658;85.326;2022-09-24T04:03:25;30.50;90.40
69204;DHT22;56317;27.658;85.326;2022-09-24T04:05:52;30.50;90.10
69204;DHT22;56317;27.658;85.326;2022-09-24T04:08:21;30.20;90.00
69204;DHT22;56317;27.658;85.326;2022-09-24T04:10:49;30.00;90.20
69204;DHT22;56317;27.658;85.326;2022-09-24T04:13:17;30.20;89.80
69204;DHT22;56317;27.658;85.326;2022-09-24T04:15:45;30.30;87.70
69204;DHT22;56317;27.658;85.326;2022-09-24T04:18:14;30.30;87.40
69204;DHT22;56317;27.658;85.326;2022-09-24T04:20:41;30.50;88.20
69204;DHT22;56317;27.658;85.326;2022-09-24T04:23:09;31.00;85.70
69204;DHT22;56317;27.658;85.326;2022-09-24T04:25:37;31.40;85.20
69204;DHT22;56317;27.658;85.326;2022-09-24T04:28:07;31.90;82.60
69204;DHT22;56317;27.658;85.326;2022-09-24T04:30:36;32.30;81.40
69204;DHT22;56317;27.658;85.326;2022-09-24T04:33:03;32.50;79.70
69204;DHT22;56317;27.658;85.326;2022-09-24T04:35:33;32.60;79.30
69204;DHT22;56317;27.658;85.326;2022-09-24T04:38:04;32.80;76.80
69204;DHT22;56317;27.658;85.326;2022-09-24T04:40:31;33.00;76.90
69204;DHT22;56317;27.658;85.326;2022-09-24T04:42:59;33.10;75.30
69204;DHT22;56317;27.658;85.326;2022-09-24T04:45:26;33.50;74.50
69204;DHT22;56317;27.658;85.326;2022-09-24T04:47:54;34.20;74.20
69204;DHT22;56317;27.658;85.326;2022-09-24T04:50:28;34.80;71.60
69204;DHT22;56317;27.658;85.326;2022-09-24T04:52:59;35.00;71.00
69204;DHT22;56317;27.658;85.326;2022-09-24T04:55:27;35.30;68.40
69204;DHT22;56317;27.658;85.326;2022-09-24T04:57:57;35.70;68.00
69204;DHT22;56317;27.658;85.326;2022-09-24T05:00:25;35.90;64.10
69204;DHT22;56317;27.658;85.326;2022-09-24T05:02:57;35.80;64.70
69204;DHT22;56317;27.658;85.326;2022-09-24T05:05:29;35.90;66.10
69204;DHT22;56317;27.658;85.326;2022-09-24T05:07:58;36.00;65.20
69204;DHT22;56317;27.658;85.326;2022-09-24T05:10:26;36.00;62.20
69204;DHT22;56317;27.658;85.326;2022-09-24T05:12:54;36.00;61.20
69204;DHT22;56317;27.658;85.326;2022-09-24T05:15:21;35.90;61.40
69204;DHT22;56317;27.658;85.326;2022-09-24T05:17:48;36.00;62.40
69204;DHT22;56317;27.658;85.326;2022-09-24T05:20:16;36.70;62.80
69204;DHT22;56317;27.658;85.326;2022-09-24T05:22:47;37.20;59.80
69204;DHT22;56317;27.658;85.326;2022-09-24T05:25:16;37.50;58.90
69204;DHT22;56317;27.658;85.326;2022-09-24T05:27:51;39.50;58.20
69204;DHT22;56317;27.658;85.326;2022-09-24T05:30:21;42.10;53.20
69204;DHT22;56317;27.658;85.326;2022-09-24T05:32:49;44.20;51.10
69204;DHT22;56317;27.658;85.326;2022-09-24T05:35:20;45.90;46.70
69204;DHT22;56317;27.658;85.326;2022-09-24T05:37:48;47.40;44.80
69204;DHT22;56317;27.658;85.326;2022-09-24T05:40:18;48.80;42.60
69204;DHT22;56317;27.658;85.326;2022-09-24T05:43:06;50.00;41.40
69204;DHT22;56317;27.658;85.326;2022-09-24T05:45:34;51.20;39.10
69204;DHT22;56317;27.658;85.326;2022-09-24T05:48:04;51.70;37.60
69204;DHT22;56317;27.658;85.326;2022-09-24T05:50:31;51.10;36.70
69204;DHT22;56317;27.658;85.326;2022-09-24T05:53:01;48.60;36.80
69204;DHT22;56317;27.658;85.326;2022-09-24T05:55:32;46.00;38.90
69204;DHT22;56317;27.658;85.326;2022-09-24T05:58:04;44.00;41.50
69204;DHT22;56317;27.658;85.326;2022-09-24T06:00:33;42.20;41.90
69204;DHT22;56317;27.658;85.326;2022-09-24T06:03:15;40.60;43.80
69204;DHT22;56317;27.658;85.326;2022-09-24T06:05:52;39.20;47.10
69204;DHT22;56317;27.658;85.326;2022-09-24T06:08:19;38.20;48.10
69204;DHT22;56317;27.658;85.326;2022-09-24T06:10:47;37.30;49.20
69204;DHT22;56317;27.658;85.326;2022-09-24T06:13:17;36.60;49.30
69204;DHT22;56317;27.658;85.326;2022-09-24T06:15:46;36.00;51.50
69204;DHT22;56317;27.658;85.326;2022-09-24T06:18:13;35.60;53.90
69204;DHT22;56317;27.658;85.326;2022-09-24T06:20:40;35.50;52.70
69204;DHT22;56317;27.658;85.326;2022-09-24T06:23:07;36.00;53.40
69204;DHT22;56317;27.658;85.326;2022-09-24T06:25:34;35.40;53.10
69204;DHT22;56317;27.658;85.326;2022-09-24T06:28:03;34.40;53.50
69204;DHT22;56317;27.658;85.326;2022-09-24T06:30:37;33.60;55.50
69204;DHT22;56317;27.658;85.326;2022-09-24T06:33:12;32.80;58.10
69204;DHT22;56317;27.658;85.326;2022-09-24T06:35:40;32.10;59.40
69204;DHT22;56317;27.658;85.326;2022-09-24T06:38:11;31.40;63.00
69204;DHT22;56317;27.658;85.326;2022-09-24T06:40:38;30.70;65.80
69204;DHT22;56317;27.658;85.326;2022-09-24T06:43:07;30.50;65.80
69204;DHT22;56317;27.658;85.326;2022-09-24T06:45:36;31.50;66.40
69204;DHT22;56317;27.658;85.326;2022-09-24T06:48:04;32.70;63.40
69204;DHT22;56317;27.658;85.326;2022-09-24T06:50:33;34.40;61.40
69204;DHT22;56317;27.658;85.326;2022-09-24T06:53:04;38.40;57.30
69204;DHT22;56317;27.658;85.326;2022-09-24T06:55:32;41.20;50.90
69204;DHT22;56317;27.658;85.326;2022-09-24T06:58:04;43.30;48.80
69204;DHT22;56317;27.658;85.326;2022-09-24T07:00:32;45.10;46.60
69204;DHT22;56317;27.658;85.326;2022-09-24T07:03:00;46.10;43.90
69204;DHT22;56317;27.658;85.326;2022-09-24T07:05:27;46.60;43.10
69204;DHT22;56317;27.658;85.326;2022-09-24T07:07:58;46.90;42.20
69204;DHT22;56317;27.658;85.326;2022-09-24T07:10:25;47.30;41.90
69204;DHT22;56317;27.658;85.326;2022-09-24T07:12:53;47.10;41.20
69204;DHT22;56317;27.658;85.326;2022-09-24T07:15:20;46.70;41.50
69204;DHT22;56317;27.658;85.326;2022-09-24T07:17:47;47.00;41.10
69204;DHT22;56317;27.658;85.326;2022-09-24T07:20:15;47.50;40.40
69204;DHT22;56317;27.658;85.326;2022-09-24T07:22:45;47.90;40.30
69204;DHT22;56317;27.658;85.326;2022-09-24T07:25:12;48.10;39.30
69204;DHT22;56317;27.658;85.326;2022-09-24T07:27:39;48.20;39.10
69204;DHT22;56317;27.658;85.326;2022-09-24T07:30:08;47.80;39.10
69204;DHT22;56317;27.658;85.326;2022-09-24T07:32:35;47.00;40.70
69204;DHT22;56317;27.658;85.326;2022-09-24T07:35:03;47.10;39.60
69204;DHT22;56317;27.658;85.326;2022-09-24T07:37:30;46.70;40.30
69204;DHT22;56317;27.658;85.326;2022-09-24T07:40:00;47.10;40.90
69204;DHT22;56317;27.658;85.326;2022-09-24T07:42:27;48.30;39.40
69204;DHT22;56317;27.658;85.326;2022-09-24T07:44:55;48.90;38.60
69204;DHT22;56317;27.658;85.326;2022-09-24T07:47:22;48.60;38.10
69204;DHT22;56317;27.658;85.326;2022-09-24T07:49:50;48.80;38.30
69204;DHT22;56317;27.658;85.326;2022-09-24T07:52:17;49.70;38.30
69204;DHT22;56317;27.658;85.326;2022-09-24T07:54:44;50.60;36.90
69204;DHT22;56317;27.658;85.326;2022-09-24T07:57:12;51.10;36.60
69204;DHT22;56317;27.658;85.326;2022-09-24T07:59:40;51.60;35.70
69204;DHT22;56317;27.658;85.326;2022-09-24T08:02:19;51.70;35.50
69204;DHT22;56317;27.658;85.326;2022-09-24T08:04:46;50.90;35.60
69204;DHT22;56317;27.658;85.326;2022-09-24T08:07:14;49.80;36.10
69204;DHT22;56317;27.658;85.326;2022-09-24T08:09:41;47.50;37.30
69204;DHT22;56317;27.658;85.326;2022-09-24T08:12:08;46.20;38.80
69204;DHT22;56317;27.658;85.326;2022-09-24T08:14:36;45.50;40.00
69204;DHT22;56317;27.658;85.326;2022-09-24T08:17:06;45.60;39.90
69204;DHT22;56317;27.658;85.326;2022-09-24T08:19:32;44.70;40.20
69204;DHT22;56317;27.658;85.326;2022-09-24T08:21:59;45.60;40.90
69204;DHT22;56317;27.658;85.326;2022-09-24T08:24:27;47.10;38.60
69204;DHT22;56317;27.658;85.326;2022-09-24T08:26:54;47.90;37.90
69204;DHT22;56317;27.658;85.326;2022-09-24T08:29:21;47.50;38.10
69204;DHT22;56317;27.658;85.326;2022-09-24T08:31:48;46.20;38.70
69204;DHT22;56317;27.658;85.326;2022-09-24T08:34:15;44.50;39.70
69204;DHT22;56317;27.658;85.326;2022-09-24T08:36:42;43.50;40.00
69204;DHT22;56317;27.658;85.326;2022-09-24T08:39:18;42.20;41.90
69204;DHT22;56317;27.658;85.326;2022-09-24T08:42:05;40.50;43.50
69204;DHT22;56317;27.658;85.326;2022-09-24T08:44:42;38.30;46.20
69204;DHT22;56317;27.658;85.326;2022-09-24T08:50:05;35.00;51.50
69204;DHT22;56317;27.658;85.326;2022-09-24T08:55:40;36.40;51.20
69204;DHT22;56317;27.658;85.326;2022-09-24T09:00:53;40.50;45.90
69204;DHT22;56317;27.658;85.326;2022-09-24T09:03:35;39.80;46.20
69204;DHT22;56317;27.658;85.326;2022-09-24T09:08:46;39.20;46.90
69204;DHT22;56317;27.658;85.326;2022-09-24T09:11:22;39.80;46.70
69204;DHT22;56317;27.658;85.326;2022-09-24T09:14:33;40.90;45.70
69204;DHT22;56317;27.658;85.326;2022-09-24T09:20:02;42.30;44.40
69204;DHT22;56317;27.658;85.326;2022-09-24T09:22:36;42.60;44.30
69204;DHT22;56317;27.658;85.326;2022-09-24T09:25:23;42.00;44.00
69204;DHT22;56317;27.658;85.326;2022-09-24T09:28:11;41.80;44.60
69204;DHT22;56317;27.658;85.326;2022-09-24T09:30:59;42.70;44.00
69204;DHT22;56317;27.658;85.326;2022-09-24T09:42:38;39.50;46.20
69204;DHT22;56317;27.658;85.326;2022-09-24T09:48:13;42.30;43.20
69204;DHT22;56317;27.658;85.326;2022-09-24T09:50:48;40.50;44.40
69204;DHT22;56317;27.658;85.326;2022-09-24T09:53:26;38.90;45.50
69204;DHT22;56317;27.658;85.326;2022-09-24T09:56:03;36.80;48.20
69204;DHT22;56317;27.658;85.326;2022-09-24T09:58:33;36.20;49.50
69204;DHT22;56317;27.658;85.326;2022-09-24T10:01:07;34.30;52.50
69204;DHT22;56317;27.658;85.326;2022-09-24T10:03:47;32.60;55.20
69204;DHT22;56317;27.658;85.326;2022-09-24T10:06:25;31.50;58.70
69204;DHT22;56317;27.658;85.326;2022-09-24T10:08:53;31.20;60.20
69204;DHT22;56317;27.658;85.326;2022-09-24T10:11:22;30.90;60.10
69204;DHT22;56317;27.658;85.326;2022-09-24T10:14:09;30.20;61.10
69204;DHT22;56317;27.658;85.326;2022-09-24T10:16:52;29.40;63.80
69204;DHT22;56317;27.658;85.326;2022-09-24T10:19:22;28.70;64.90
69204;DHT22;56317;27.658;85.326;2022-09-24T10:21:51;28.10;67.50
69204;DHT22;56317;27.658;85.326;2022-09-24T10:24:22;27.60;68.70
69204;DHT22;56317;27.658;85.326;2022-09-24T10:26:50;27.10;70.90
69204;DHT22;56317;27.658;85.326;2022-09-24T10:29:21;26.80;70.60
69204;DHT22;56317;27.658;85.326;2022-09-24T10:32:16;26.60;71.60
69204;DHT22;56317;27.658;85.326;2022-09-24T10:34:57;26.30;73.20
69204;DHT22;56317;27.658;85.326;2022-09-24T10:37:27;26.10;74.20
69204;DHT22;56317;27.658;85.326;2022-09-24T10:40:07;25.90;74.80
69204;DHT22;56317;27.658;85.326;2022-09-24T10:42:37;25.70;75.30
69204;DHT22;56317;27.658;85.326;2022-09-24T10:45:11;25.60;77.20
69204;DHT22;56317;27.658;85.326;2022-09-24T10:47:49;25.40;77.00
69204;DHT22;56317;27.658;85.326;2022-09-24T10:50:36;25.30;77.20
69204;DHT22;56317;27.658;85.326;2022-09-24T10:53:13;25.30;77.50
69204;DHT22;56317;27.658;85.326;2022-09-24T11:01:35;25.00;78.90
69204;DHT22;56317;27.658;85.326;2022-09-24T11:04:12;25.00;79.10
69204;DHT22;56317;27.658;85.326;2022-09-24T11:15:50;25.10;80.40
69204;DHT22;56317;27.658;85.326;2022-09-24T11:21:35;25.70;79.70
69204;DHT22;56317;27.658;85.326;2022-09-24T11:32:10;26.80;76.00
69204;DHT22;56317;27.658;85.326;2022-09-24T11:46:32;26.50;76.60
69204;DHT22;56317;27.658;85.326;2022-09-24T11:51:35;26.20;78.30
69204;DHT22;56317;27.658;85.326;2022-09-24T11:54:23;25.80;79.50
69204;DHT22;56317;27.658;85.326;2022-09-24T11:56:59;25.50;80.10
69204;DHT22;56317;27.658;85.326;2022-09-24T11:59:47;25.30;80.60
69204;DHT22;56317;27.658;85.326;2022-09-24T12:05:50;24.90;83.30
69204;DHT22;56317;27.658;85.326;2022-09-24T12:08:40;24.70;83.40
69204;DHT22;56317;27.658;85.326;2022-09-24T12:11:12;24.60;85.10
69204;DHT22;56317;27.658;85.326;2022-09-24T12:14:06;24.30;86.10
69204;DHT22;56317;27.658;85.326;2022-09-24T12:16:39;24.10;86.70
69204;DHT22;56317;27.658;85.326;2022-09-24T12:20:01;23.90;87.50
69204;DHT22;56317;27.658;85.326;2022-09-24T12:22:21;23.70;88.10
69204;DHT22;56317;27.658;85.326;2022-09-24T12:24:58;23.50;89.00
69204;DHT22;56317;27.658;85.326;2022-09-24T12:27:36;23.30;89.90
69204;DHT22;56317;27.658;85.326;2022-09-24T12:30:11;23.20;90.90
69204;DHT22;56317;27.658;85.326;2022-09-24T12:33:08;23.10;91.30
69204;DHT22;56317;27.658;85.326;2022-09-24T12:46:11;22.60;92.10
69204;DHT22;56317;27.658;85.326;2022-09-24T12:48:43;22.60;92.80
69204;DHT22;56317;27.658;85.326;2022-09-24T12:51:11;22.60;93.20
69204;DHT22;56317;27.658;85.326;2022-09-24T12:53:55;22.60;92.50
69204;DHT22;56317;27.658;85.326;2022-09-24T12:56:28;22.50;93.20
69204;DHT22;56317;27.658;85.326;2022-09-24T12:58:56;22.50;93.80
69204;DHT22;56317;27.658;85.326;2022-09-24T13:06:43;22.40;95.30
69204;DHT22;56317;27.658;85.326;2022-09-24T13:09:25;22.40;95.60
69204;DHT22;56317;27.658;85.326;2022-09-24T13:14:32;22.30;96.20
69204;DHT22;56317;27.658;85.326;2022-09-24T13:17:04;22.30;97.30
69204;DHT22;56317;27.658;85.326;2022-09-24T13:19:43;22.30;97.70
69204;DHT22;56317;27.658;85.326;2022-09-24T13:22:30;22.20;97.80
69204;DHT22;56317;27.658;85.326;2022-09-24T13:27:39;22.30;99.00
69204;DHT22;56317;27.658;85.326;2022-09-24T13:33:02;22.50;99.80
69204;DHT22;56317;27.658;85.326;2022-09-24T13:38:50;22.60;99.90
69204;DHT22;56317;27.658;85.326;2022-09-24T13:44:06;22.60;99.90
69204;DHT22;56317;27.658;85.326;2022-09-24T13:46:42;22.60;99.90
69204;DHT22;56317;27.658;85.326;2022-09-24T13:49:17;22.60;99.90
69204;DHT22;56317;27.658;85.326;2022-09-24T13:52:05;22.60;99.90
69204;DHT22;56317;27.658;85.326;2022-09-24T13:54:39;22.60;99.90
69204;DHT22;56317;27.658;85.326;2022-09-24T13:57:23;22.50;99.90
69204;DHT22;56317;27.658;85.326;2022-09-24T14:05:19;22.50;99.90
69204;DHT22;56317;27.658;85.326;2022-09-24T14:08:04;22.60;99.90
69204;DHT22;56317;27.658;85.326;2022-09-24T14:10:33;22.60;99.90
69204;DHT22;56317;27.658;85.326;2022-09-24T14:13:23;22.70;99.90
69204;DHT22;56317;27.658;85.326;2022-09-24T14:18:18;22.70;99.90
69204;DHT22;56317;27.658;85.326;2022-09-24T14:21:29;22.70;99.90
69204;DHT22;56317;27.658;85.326;2022-09-24T14:26:09;22.70;99.90
69204;DHT22;56317;27.658;85.326;2022-09-24T14:28:40;22.60;99.90
69204;DHT22;56317;27.658;85.326;2022-09-24T14:31:08;22.50;99.90
69204;DHT22;56317;27.658;85.326;2022-09-24T14:33:37;22.50;99.90
69204;DHT22;56317;27.658;85.326;2022-09-24T14:36:05;22.50;99.90
69204;DHT22;56317;27.658;85.326;2022-09-24T14:38:57;22.50;99.90
69204;DHT22;56317;27.658;85.326;2022-09-24T14:41:29;22.50;99.90
69204;DHT22;56317;27.658;85.326;2022-09-24T14:44:22;22.40;99.90
69204;DHT22;56317;27.658;85.326;2022-09-24T14:46:55;22.30;99.90
69204;DHT22;56317;27.658;85.326;2022-09-24T14:49:31;22.20;99.90
69204;DHT22;56317;27.658;85.326;2022-09-24T14:52:26;22.10;99.90
69204;DHT22;56317;27.658;85.326;2022-09-24T14:57:35;21.90;99.90
69204;DHT22;56317;27.658;85.326;2022-09-24T15:00:21;21.90;99.90
69204;DHT22;56317;27.658;85.326;2022-09-24T15:03:02;21.90;99.90
69204;DHT22;56317;27.658;85.326;2022-09-24T15:05:30;21.90;99.90
69204;DHT22;56317;27.658;85.326;2022-09-24T15:11:13;21.90;99.90
69204;DHT22;56317;27.658;85.326;2022-09-24T15:13:40;21.80;99.90
69204;DHT22;56317;27.658;85.326;2022-09-24T15:16:19;21.80;99.90
69204;DHT22;56317;27.658;85.326;2022-09-24T15:18:56;21.80;99.90
69204;DHT22;56317;27.658;85.326;2022-09-24T15:21:24;21.70;99.90
69204;DHT22;56317;27.658;85.326;2022-09-24T15:23:54;21.70;99.90
69204;DHT22;56317;27.658;85.326;2022-09-24T15:26:23;21.80;99.90
69204;DHT22;56317;27.658;85.326;2022-09-24T15:28:53;21.70;99.90
69204;DHT22;56317;27.658;85.326;2022-09-24T15:31:21;21.70;99.90
69204;DHT22;56317;27.658;85.326;2022-09-24T15:33:48;21.80;99.90
69204;DHT22;56317;27.658;85.326;2022-09-24T15:36:16;21.70;99.90
69204;DHT22;56317;27.658;85.326;2022-09-24T15:38:50;21.80;99.90
69204;DHT22;56317;27.658;85.326;2022-09-24T15:41:18;21.80;99.90
69204;DHT22;56317;27.658;85.326;2022-09-24T15:43:45;21.80;99.90
69204;DHT22;56317;27.658;85.326;2022-09-24T15:46:12;21.80;99.90
69204;DHT22;56317;27.658;85.326;2022-09-24T15:48:39;21.80;99.90
69204;DHT22;56317;27.658;85.326;2022-09-24T15:51:09;21.70;99.90
69204;DHT22;56317;27.658;85.326;2022-09-24T15:53:37;21.70;99.90
69204;DHT22;56317;27.658;85.326;2022-09-24T15:56:04;21.80;99.90
69204;DHT22;56317;27.658;85.326;2022-09-24T15:58:33;21.80;99.90
69204;DHT22;56317;27.658;85.326;2022-09-24T16:01:00;21.80;99.90
69204;DHT22;56317;27.658;85.326;2022-09-24T16:03:30;21.80;99.90
69204;DHT22;56317;27.658;85.326;2022-09-24T16:05:58;21.80;99.90
69204;DHT22;56317;27.658;85.326;2022-09-24T16:08:26;21.80;99.90
69204;DHT22;56317;27.658;85.326;2022-09-24T16:10:56;21.80;99.90
69204;DHT22;56317;27.658;85.326;2022-09-24T16:13:23;21.90;99.90
69204;DHT22;56317;27.658;85.326;2022-09-24T16:15:51;21.80;99.90
69204;DHT22;56317;27.658;85.326;2022-09-24T16:18:18;21.80;99.90
69204;DHT22;56317;27.658;85.326;2022-09-24T16:20:47;21.80;99.90
69204;DHT22;56317;27.658;85.326;2022-09-24T16:23:16;21.70;99.90
69204;DHT22;56317;27.658;85.326;2022-09-24T16:25:57;21.70;99.90
69204;DHT22;56317;27.658;85.326;2022-09-24T16:28:26;21.60;99.90
69204;DHT22;56317;27.658;85.326;2022-09-24T16:30:54;21.60;99.90
69204;DHT22;56317;27.658;85.326;2022-09-24T16:33:22;21.60;99.90
69204;DHT22;56317;27.658;85.326;2022-09-24T16:35:49;21.60;99.90
69204;DHT22;56317;27.658;85.326;2022-09-24T16:38:17;21.60;99.90
69204;DHT22;56317;27.658;85.326;2022-09-24T16:40:44;21.50;99.90
69204;DHT22;56317;27.658;85.326;2022-09-24T16:43:11;21.50;99.90
69204;DHT22;56317;27.658;85.326;2022-09-24T16:45:38;21.50;99.90
69204;DHT22;56317;27.658;85.326;2022-09-24T16:48:06;21.50;99.90
69204;DHT22;56317;27.658;85.326;2022-09-24T16:50:33;21.50;99.90
69204;DHT22;56317;27.658;85.326;2022-09-24T16:53:01;21.60;99.90
69204;DHT22;56317;27.658;85.326;2022-09-24T16:55:28;21.60;99.90
69204;DHT22;56317;27.658;85.326;2022-09-24T16:57:55;21.60;99.90
69204;DHT22;56317;27.658;85.326;2022-09-24T17:00:22;21.60;99.90
69204;DHT22;56317;27.658;85.326;2022-09-24T17:02:49;21.60;99.90
69204;DHT22;56317;27.658;85.326;2022-09-24T17:05:16;21.60;99.90
69204;DHT22;56317;27.658;85.326;2022-09-24T17:07:43;21.60;99.90
69204;DHT22;56317;27.658;85.326;2022-09-24T17:10:10;21.70;99.90
69204;DHT22;56317;27.658;85.326;2022-09-24T17:12:49;21.70;99.90
69204;DHT22;56317;27.658;85.326;2022-09-24T17:15:18;21.70;99.90
69204;DHT22;56317;27.658;85.326;2022-09-24T17:17:47;21.70;99.90
69204;DHT22;56317;27.658;85.326;2022-09-24T17:20:14;21.60;99.90
69204;DHT22;56317;27.658;85.326;2022-09-24T17:22:53;21.60;99.90
69204;DHT22;56317;27.658;85.326;2022-09-24T17:25:21;21.60;99.90
69204;DHT22;56317;27.658;85.326;2022-09-24T17:27:48;21.60;99.90
69204;DHT22;56317;27.658;85.326;2022-09-24T17:30:15;21.60;99.90
69204;DHT22;56317;27.658;85.326;2022-09-24T17:32:42;21.50;99.90
69204;DHT22;56317;27.658;85.326;2022-09-24T17:35:10;21.40;99.90
69204;DHT22;56317;27.658;85.326;2022-09-24T17:37:40;21.40;99.90
69204;DHT22;56317;27.658;85.326;2022-09-24T17:40:08;21.30;99.90
69204;DHT22;56317;27.658;85.326;2022-09-24T17:42:36;21.20;99.90
69204;DHT22;56317;27.658;85.326;2022-09-24T17:45:04;21.20;99.90
69204;DHT22;56317;27.658;85.326;2022-09-24T17:47:33;21.10;99.90
69204;DHT22;56317;27.658;85.326;2022-09-24T17:50:19;21.10;99.90
69204;DHT22;56317;27.658;85.326;2022-09-24T17:52:47;21.00;99.90
69204;DHT22;56317;27.658;85.326;2022-09-24T17:55:14;21.10;99.90
69204;DHT22;56317;27.658;85.326;2022-09-24T17:57:41;21.10;99.90
69204;DHT22;56317;27.658;85.326;2022-09-24T18:00:09;21.10;99.90
69204;DHT22;56317;27.658;85.326;2022-09-24T18:02:36;21.00;99.90
69204;DHT22;56317;27.658;85.326;2022-09-24T18:05:03;21.00;99.90
69204;DHT22;56317;27.658;85.326;2022-09-24T18:07:31;20.90;99.90
69204;DHT22;56317;27.658;85.326;2022-09-24T18:09:58;20.90;99.90